createdAt,value
2018-05-18T00:03:03.599Z,101570.58
2018-05-18T00:08:04.918Z,101574.96
2018-05-18T00:13:06.234Z,101568.83
2018-05-18T00:18:08.296Z,101581.20
2018-05-18T00:23:09.606Z,101572.20
2018-05-18T00:28:10.915Z,101565.73
2018-05-18T00:33:12.958Z,101560.31
2018-05-18T00:38:14.260Z,101567.09
2018-05-18T00:43:15.575Z,101567.09
2018-05-18T00:48:16.907Z,101567.70
2018-05-18T00:53:18.226Z,101562.41
2018-05-18T00:58:26.533Z,101561.30
2018-05-18T01:03:28.576Z,101567.55
2018-05-18T01:08:29.886Z,101570.40
2018-05-18T01:13:31.196Z,101572.22
2018-05-18T01:18:32.570Z,101567.99
2018-05-18T01:23:33.880Z,101563.93
2018-05-18T01:28:35.173Z,101566.06
2018-05-18T01:33:36.490Z,101573.92
2018-05-18T01:38:38.609Z,101565.41
2018-05-18T01:43:39.880Z,101571.20
2018-05-18T01:48:41.934Z,101560.28
2018-05-18T01:53:43.247Z,101555.58
2018-05-18T01:58:44.541Z,101567.80
2018-05-18T02:03:46.003Z,101573.38
2018-05-18T02:08:47.316Z,101582.27
2018-05-18T02:13:48.623Z,101581.32
2018-05-18T02:18:50.676Z,101581.77
2018-05-18T02:23:52.006Z,101579.90
2018-05-18T02:28:53.291Z,101576.73
2018-05-18T02:33:54.600Z,101578.68
2018-05-18T02:38:56.670Z,101578.48
2018-05-18T02:43:57.994Z,101571.36
2018-05-18T02:49:00.265Z,101571.34
2018-05-18T02:54:01.588Z,101574.58
2018-05-18T02:59:02.927Z,101570.89
2018-05-18T03:04:04.249Z,101581.59
2018-05-18T03:09:05.621Z,101569.44
2018-05-18T03:14:06.935Z,101572.83
2018-05-18T03:19:08.253Z,101582.30
2018-05-18T03:24:10.302Z,101586.92
2018-05-18T03:29:11.630Z,101588.33
2018-05-18T03:34:12.941Z,101596.03
2018-05-18T03:39:14.346Z,101596.36
2018-05-18T03:44:15.662Z,101589.92
2018-05-18T03:49:16.971Z,101596.23
2018-05-18T03:54:18.298Z,101597.76
2018-05-18T03:59:21.050Z,101594.51
2018-05-18T04:04:41.260Z,101595.16
2018-05-18T04:09:43.479Z,101588.92
2018-05-18T04:14:45.435Z,101596.55
2018-05-18T04:19:47.649Z,101603.30
2018-05-18T04:24:48.941Z,101604.28
2018-05-18T04:29:50.252Z,101605.41
2018-05-18T04:34:52.307Z,101608.41
2018-05-18T04:39:53.614Z,101607.11
2018-05-18T04:44:54.916Z,101606.81
2018-05-18T04:49:56.234Z,101610.02
2018-05-18T04:54:57.523Z,101611.01
2018-05-18T04:59:58.826Z,101608.77
2018-05-18T05:05:00.162Z,101615.11
2018-05-18T05:10:01.494Z,101615.84
2018-05-18T05:15:02.847Z,101622.70
2018-05-18T05:20:04.170Z,101631.24
2018-05-18T05:25:05.499Z,101637.42
2018-05-18T05:30:06.825Z,101647.46
2018-05-18T05:35:08.129Z,101643.40
2018-05-18T05:40:10.186Z,101640.48
2018-05-18T05:45:11.502Z,101641.75
2018-05-18T05:50:12.840Z,101654.11
2018-05-18T05:55:14.182Z,101656.81
2018-05-18T06:00:15.510Z,101668.56
2018-05-18T06:05:16.960Z,101662.54
2018-05-18T06:10:18.213Z,101672.02
2018-05-18T06:15:19.537Z,101674.92
2018-05-18T06:20:20.875Z,101676.73
2018-05-18T06:25:22.194Z,101671.89
2018-05-18T06:30:23.510Z,101673.27
2018-05-18T06:35:24.846Z,101684.34
2018-05-18T06:40:26.186Z,101684.42
2018-05-18T06:45:27.490Z,101693.87
2018-05-18T06:50:29.569Z,101687.17
2018-05-18T06:55:30.900Z,101685.70
2018-05-18T07:00:32.198Z,101692.97
2018-05-18T07:05:33.497Z,101690.46
2018-05-18T07:10:34.888Z,101682.44
2018-05-18T07:15:36.134Z,101683.69
2018-05-18T07:20:38.203Z,101679.89
2018-05-18T07:25:39.523Z,101686.11
2018-05-18T07:30:40.849Z,101688.09
2018-05-18T07:35:42.170Z,101689.59
2018-05-18T07:40:43.483Z,101682.88
2018-05-18T07:45:44.821Z,101686.42
2018-05-18T07:50:46.142Z,101686.48
2018-05-18T07:55:47.458Z,101683.88
2018-05-18T08:00:48.769Z,101689.29
2018-05-18T08:05:50.814Z,101695.14
2018-05-18T08:10:52.122Z,101700.61
2018-05-18T08:15:53.434Z,101691.24
2018-05-18T08:20:54.734Z,101701.44
2018-05-18T08:25:56.050Z,101692.70
2018-05-18T08:31:06.247Z,101698.94
2018-05-18T08:36:07.576Z,101702.45
2018-05-18T08:41:09.702Z,101698.63
2018-05-18T08:46:11.007Z,101712.58
2018-05-18T08:51:13.053Z,101713.30
2018-05-18T08:56:14.362Z,101712.95
2018-05-18T09:01:15.672Z,101715.56
2018-05-18T09:06:16.993Z,101713.23
2018-05-18T09:11:18.313Z,101720.92
2018-05-18T09:16:19.609Z,101715.34
2018-05-18T09:21:20.930Z,101718.73
2018-05-18T09:26:22.307Z,101719.80
2018-05-18T09:31:23.590Z,101723.19
2018-05-18T09:36:24.906Z,101720.84
2018-05-18T09:41:26.218Z,101718.03
2018-05-18T09:46:27.618Z,101714.54
2018-05-18T09:51:28.971Z,101720.75
2018-05-18T09:56:30.391Z,101725.17
2018-05-18T10:01:31.703Z,101721.74
2018-05-18T10:06:33.050Z,101722.75
2018-05-18T10:11:35.126Z,101727.61
2018-05-18T10:16:36.442Z,101722.91
2018-05-18T10:21:38.491Z,101720.76
2018-05-18T10:26:39.835Z,101722.27
2018-05-18T10:31:41.134Z,101719.86
2018-05-18T10:36:43.183Z,101712.92
2018-05-18T10:41:44.514Z,101704.55
2018-05-18T10:46:45.846Z,101713.07
2018-05-18T10:51:47.175Z,101715.34
2018-05-18T10:56:48.523Z,101711.95
2018-05-18T11:01:49.836Z,101708.70
2018-05-18T11:06:51.224Z,101710.14
2018-05-18T11:11:53.239Z,101718.67
2018-05-18T11:16:54.567Z,101709.38
2018-05-18T11:21:55.882Z,101711.46
2018-05-18T11:26:57.175Z,101713.13
2018-05-18T11:31:58.499Z,101718.31
2018-05-18T11:36:59.810Z,101716.68
2018-05-18T11:42:01.156Z,101704.75
2018-05-18T11:47:02.529Z,101694.67
2018-05-18T11:52:03.932Z,101688.77
2018-05-18T11:57:05.251Z,101690.48
2018-05-18T12:02:06.602Z,101687.94
2018-05-18T12:07:07.910Z,101689.55
2018-05-18T12:12:09.239Z,101686.88
2018-05-18T12:17:10.563Z,101683.19
2018-05-18T12:22:11.883Z,101681.77
2018-05-18T12:27:13.230Z,101690.11
2018-05-18T12:32:15.274Z,101684.34
2018-05-18T12:37:23.533Z,101678.39
2018-05-18T12:42:24.875Z,101677.93
2018-05-18T12:47:26.936Z,101663.08
2018-05-18T12:52:28.247Z,101662.77
2018-05-18T12:57:29.566Z,101657.34
2018-05-18T13:02:31.746Z,101662.48
2018-05-18T13:07:33.025Z,101656.09
2018-05-18T13:12:34.362Z,101659.21
2018-05-18T13:17:35.683Z,101663.44
2018-05-18T13:22:37.003Z,101650.17
2018-05-18T13:27:38.411Z,101639.56
2018-05-18T13:32:39.734Z,101637.17
2018-05-18T13:37:41.034Z,101638.67
2018-05-18T13:42:42.350Z,101632.82
2018-05-18T13:47:43.694Z,101635.88
2018-05-18T13:52:45.022Z,101634.12
2018-05-18T13:57:46.359Z,101630.91
2018-05-18T14:02:48.492Z,101623.67
2018-05-18T14:07:49.742Z,101620.95
2018-05-18T14:12:52.202Z,101615.52
2018-05-18T14:17:53.548Z,101616.34
2018-05-18T14:22:55.600Z,101610.77
2018-05-18T14:27:56.914Z,101620.66
2018-05-18T14:32:58.230Z,101619.99
2018-05-18T14:37:59.669Z,101608.66
2018-05-18T14:43:00.888Z,101612.21
2018-05-18T14:48:02.242Z,101601.61
2018-05-18T14:53:03.579Z,101597.70
2018-05-18T14:58:04.913Z,101594.14
2018-05-18T15:03:06.229Z,101595.58
2018-05-18T15:08:07.552Z,101597.27
2018-05-18T15:13:08.890Z,101598.95
2018-05-18T15:18:10.211Z,101601.95
2018-05-18T15:23:11.564Z,101602.02
2018-05-18T15:28:13.089Z,101599.22
2018-05-18T15:33:14.399Z,101600.04
2018-05-18T15:38:15.689Z,101597.05
2018-05-18T15:43:17.010Z,101599.06
2018-05-18T15:48:18.322Z,101598.27
2018-05-18T15:53:19.659Z,101595.55
2018-05-18T15:58:21.150Z,101587.65
2018-05-18T16:03:22.537Z,101591.17
2018-05-18T16:08:23.859Z,101593.72
2018-05-18T16:13:25.154Z,101588.12
2018-05-18T16:18:26.480Z,101585.04
2018-05-18T16:23:27.816Z,101583.16
2018-05-18T16:28:29.897Z,101582.48
2018-05-18T16:33:31.236Z,101583.30
2018-05-18T16:38:32.558Z,101585.52
2018-05-18T16:43:33.882Z,101581.63
2018-05-18T16:48:36.010Z,101583.25
2018-05-18T16:53:37.330Z,101583.84
2018-05-18T16:58:38.642Z,101578.22
2018-05-18T17:03:39.960Z,101577.25
2018-05-18T17:08:42.010Z,101581.69
2018-05-18T17:13:43.352Z,101584.80
2018-05-18T17:18:44.646Z,101581.02
2018-05-18T17:23:46.706Z,101579.76
2018-05-18T17:28:48.030Z,101578.27
2018-05-18T17:33:49.318Z,101575.20
2018-05-18T17:38:51.167Z,101579.56
2018-05-18T17:43:53.194Z,101585.98
2018-05-18T17:48:55.555Z,101586.08
2018-05-18T17:53:57.237Z,101586.81
2018-05-18T17:58:58.582Z,101590.63
2018-05-18T18:03:59.919Z,101588.62
2018-05-18T18:09:01.293Z,101583.97
2018-05-18T18:14:02.715Z,101596.44
2018-05-18T18:19:04.031Z,101588.50
2018-05-18T18:24:05.498Z,101589.85
2018-05-18T18:29:07.598Z,101600.84
2018-05-18T18:34:09.726Z,101596.34
2018-05-18T18:39:11.900Z,101598.67
2018-05-18T18:44:13.279Z,101601.34
2018-05-18T18:49:14.723Z,101608.64
2018-05-18T18:54:16.731Z,101611.08
2018-05-18T18:59:18.082Z,101609.34
2018-05-18T19:04:20.188Z,101618.61
2018-05-18T19:09:21.522Z,101585.39
2018-05-18T19:14:22.882Z,101627.16
2018-05-18T19:19:26.041Z,101653.08
2018-05-18T19:24:27.399Z,101636.20
2018-05-18T19:29:29.461Z,101641.36
2018-05-18T19:34:30.790Z,101659.25
2018-05-18T19:39:32.129Z,101654.37
2018-05-18T19:44:33.457Z,101661.19
2018-05-18T19:49:34.761Z,101669.78
2018-05-18T19:54:37.940Z,101670.30
2018-05-18T19:59:40.140Z,101673.57
2018-05-18T20:04:42.272Z,101675.47
2018-05-18T20:09:43.598Z,101670.31
2018-05-18T20:14:46.061Z,101680.97
2018-05-18T20:19:47.485Z,101681.09
2018-05-18T20:24:48.737Z,101678.72
2018-05-18T20:29:50.059Z,101686.23
2018-05-18T20:34:51.385Z,101688.97
2018-05-18T20:39:52.685Z,101690.28
2018-05-18T20:44:53.995Z,101693.15
2018-05-18T20:49:55.314Z,101700.39
2018-05-18T20:54:56.698Z,101698.56
2018-05-18T20:59:58.087Z,101698.24
2018-05-18T21:04:59.431Z,101706.10
2018-05-18T21:10:00.740Z,101705.97
2018-05-18T21:15:02.082Z,101706.30
2018-05-18T21:20:03.426Z,101702.52
2018-05-18T21:25:04.764Z,101708.11
2018-05-18T21:30:06.102Z,101712.88
2018-05-18T21:35:07.414Z,101714.45
2018-05-18T21:40:08.721Z,101715.01
2018-05-18T21:45:10.034Z,101717.15
2018-05-18T21:50:11.397Z,101723.17
2018-05-18T21:55:12.718Z,101727.11
2018-05-18T22:00:14.782Z,101739.69
2018-05-18T22:05:16.110Z,101737.48
2018-05-18T22:10:17.437Z,101738.09
2018-05-18T22:15:18.736Z,101740.89
2018-05-18T22:20:20.067Z,101741.86
2018-05-18T22:25:22.126Z,101742.00
2018-05-18T22:30:23.444Z,101743.74
2018-05-18T22:35:24.771Z,101745.51
2018-05-18T22:40:26.058Z,101742.66
2018-05-18T22:45:27.375Z,101741.16
2018-05-18T22:50:28.709Z,101746.63
2018-05-18T22:55:30.046Z,101737.83
2018-05-18T23:00:31.404Z,101735.94
2018-05-18T23:05:33.471Z,101733.50
2018-05-18T23:10:34.798Z,101737.25
2018-05-18T23:15:36.851Z,101735.45
2018-05-18T23:20:38.166Z,101736.76
2018-05-18T23:25:39.494Z,101733.64
2018-05-18T23:30:40.833Z,101734.74
2018-05-18T23:35:42.145Z,101739.08
2018-05-18T23:40:43.470Z,101733.81
2018-05-18T23:45:44.776Z,101731.09
2018-05-18T23:50:46.085Z,101735.11
2018-05-18T23:55:47.390Z,101731.59
